createdAt,value
2022-08-28T00:11:27.995Z,15.67
2022-08-28T00:13:56.788Z,15.59
2022-08-28T00:16:24.038Z,15.49
2022-08-28T00:18:54.648Z,15.52
2022-08-28T00:30:00.987Z,15.46
2022-08-28T00:32:38.098Z,15.45
2022-08-28T00:42:05.400Z,15.41
2022-08-28T00:44:34.408Z,15.34
2022-08-28T00:47:08.672Z,15.29
2022-08-28T00:50:03.788Z,15.28
2022-08-28T00:52:32.281Z,15.28
2022-08-28T00:55:05.815Z,15.28
2022-08-28T00:58:00.670Z,15.27
2022-08-28T01:00:36.728Z,15.28
2022-08-28T01:03:05.709Z,15.25
2022-08-28T01:05:35.834Z,15.28
2022-08-28T01:11:06.096Z,15.16
2022-08-28T01:13:34.674Z,15.19
2022-08-28T01:16:03.732Z,15.19
2022-08-28T01:18:33.215Z,15.18
2022-08-28T01:21:09.405Z,15.15
2022-08-28T01:23:53.314Z,15.11
2022-08-28T01:26:22.452Z,15.15
2022-08-28T01:28:52.005Z,15.21
2022-08-28T01:31:26.571Z,15.18
2022-08-28T01:33:54.300Z,15.08
2022-08-28T01:36:27.808Z,15.04
2022-08-28T01:39:15.741Z,15.07
2022-08-28T01:41:46.413Z,15.03
2022-08-28T01:44:18.163Z,15.04
2022-08-28T01:46:46.604Z,15.05
2022-08-28T01:49:19.475Z,15.05
2022-08-28T01:51:48.024Z,14.97
2022-08-28T01:54:21.134Z,14.98
2022-08-28T01:56:47.987Z,15.03
2022-08-28T01:59:41.961Z,14.98
2022-08-28T02:02:10.752Z,15.00
2022-08-28T02:04:38.268Z,14.95
2022-08-28T02:17:39.387Z,14.85
2022-08-28T02:20:08.528Z,14.85
2022-08-28T02:23:06.936Z,14.84
2022-08-28T02:25:39.023Z,14.79
2022-08-28T02:28:05.887Z,14.77
2022-08-28T02:30:34.049Z,14.74
2022-08-28T02:33:01.883Z,14.80
2022-08-28T02:50:43.377Z,14.73
2022-08-28T02:53:12.112Z,14.65
2022-08-28T02:55:40.262Z,14.67
2022-08-28T03:22:39.675Z,14.48
2022-08-28T03:53:18.412Z,14.07
2022-08-28T03:55:46.339Z,14.15
2022-08-28T03:59:06.756Z,14.12
2022-08-28T04:01:36.812Z,14.07
2022-08-28T04:44:40.276Z,13.87
2022-08-28T04:47:07.908Z,13.86
2022-08-28T04:53:00.051Z,13.95
2022-08-28T04:55:45.110Z,13.89
2022-08-28T04:58:43.293Z,13.84
2022-08-28T05:01:18.823Z,13.90
2022-08-28T05:03:47.937Z,13.97
2022-08-28T05:06:16.904Z,14.02
2022-08-28T05:08:49.996Z,13.94
2022-08-28T05:11:34.209Z,13.98
2022-08-28T05:14:11.605Z,14.05
2022-08-28T05:16:49.822Z,13.97
2022-08-28T05:19:19.146Z,14.07
2022-08-28T05:25:04.212Z,14.17
2022-08-28T05:27:31.978Z,14.12
2022-08-28T05:30:02.139Z,14.19
2022-08-28T05:32:55.909Z,14.40
2022-08-28T05:35:24.885Z,14.46
2022-08-28T05:37:57.409Z,14.51
2022-08-28T05:40:25.896Z,14.62
2022-08-28T05:42:53.903Z,14.70
2022-08-28T05:45:22.477Z,14.67
2022-08-28T05:47:51.988Z,14.72
2022-08-28T05:50:20.130Z,14.77
2022-08-28T05:52:47.831Z,14.81
2022-08-28T05:55:15.949Z,14.93
2022-08-28T05:57:43.843Z,14.98
2022-08-28T06:00:13.788Z,15.11
2022-08-28T06:05:33.830Z,15.25
2022-08-28T06:08:01.905Z,15.31
2022-08-28T06:10:54.889Z,15.43
2022-08-28T06:13:22.152Z,15.45
2022-08-28T06:15:49.988Z,15.38
2022-08-28T06:18:17.899Z,15.52
2022-08-28T06:24:01.902Z,15.66
2022-08-28T06:26:30.051Z,15.71
2022-08-28T06:29:04.749Z,15.76
2022-08-28T06:31:33.457Z,15.80
2022-08-28T06:34:02.660Z,15.84
2022-08-28T06:36:32.776Z,15.97
2022-08-28T06:39:06.818Z,16.07
2022-08-28T06:41:35.604Z,16.15
2022-08-28T06:44:09.124Z,16.21
2022-08-28T06:46:36.646Z,16.24
2022-08-28T06:49:07.582Z,16.36
2022-08-28T06:54:31.603Z,16.43
2022-08-28T06:56:59.923Z,16.48
2022-08-28T06:59:28.213Z,16.66
2022-08-28T07:11:01.153Z,16.98
2022-08-28T07:13:32.130Z,17.06
2022-08-28T07:16:06.154Z,17.11
2022-08-28T07:18:34.637Z,17.14
2022-08-28T07:21:02.252Z,17.22
2022-08-28T07:23:32.040Z,17.25
2022-08-28T07:26:02.634Z,17.29
2022-08-28T07:28:29.903Z,17.45
2022-08-28T07:31:13.320Z,17.52
2022-08-28T07:33:42.708Z,17.63
2022-08-28T07:36:15.874Z,17.73
2022-08-28T07:39:04.924Z,17.89
2022-08-28T07:41:34.138Z,17.87
2022-08-28T07:44:21.131Z,18.01
2022-08-28T07:46:57.895Z,18.05
2022-08-28T07:49:52.016Z,18.14
2022-08-28T07:52:28.937Z,18.35
2022-08-28T07:54:56.587Z,18.47
2022-08-28T08:00:28.912Z,18.76
2022-08-28T12:49:15.301Z,22.35
2022-08-28T12:57:55.760Z,22.54
2022-08-28T13:00:43.030Z,22.42
